Terminal Aerodrome Forecast
Issued by NWS Sioux Falls, SD

Home | Current Version | Previous Version | Graphics & Text | Print | Product List | Glossary On
Versions: 1 2 3 4 5 6 7 8 9 10 11 12 13 14 15 16 17 18
000
FTUS43 KFSD 182335
TAFHON
TAF
KHON 182335Z 1900/1924 36020G30KT P6SM OVC017
     FM190600 36015G25KT P6SM -SN BKN025 OVC060
     FM191000 36014G22KT 4SM -SN OVC025
     FM191600 01015G25KT 2SM -SN OVC020
     FM192300 01014KT 3SM -SN OVC020=

USA.gov is the U.S. government's official web portal to all federal, state and local government web resources and services.